sensor_id;sensor_type;location;lat;lon;timestamp;pressure;altitude;pressure_sealevel;temperature;humidity
71465;BME280;59274;49.874;9.154;2023-09-18T00:00:01;99611.47;;;19.13;100.00
71465;BME280;59274;49.874;9.154;2023-09-18T00:02:26;99609.06;;;19.15;100.00
71465;BME280;59274;49.874;9.154;2023-09-18T00:04:53;99614.44;;;19.19;100.00
71465;BME280;59274;49.874;9.154;2023-09-18T00:07:18;99613.34;;;19.16;100.00
71465;BME280;59274;49.874;9.154;2023-09-18T00:09:44;99611.16;;;19.11;100.00
71465;BME280;59274;49.874;9.154;2023-09-18T00:12:09;99616.66;;;19.11;100.00
71465;BME280;59274;49.874;9.154;2023-09-18T00:14:36;99615.00;;;19.14;100.00
71465;BME280;59274;49.874;9.154;2023-09-18T00:17:02;99603.34;;;19.10;100.00
71465;BME280;59274;49.874;9.154;2023-09-18T00:19:27;99606.53;;;19.08;100.00
71465;BME280;59274;49.874;9.154;2023-09-18T00:21:53;99606.88;;;19.10;100.00
71465;BME280;59274;49.874;9.154;2023-09-18T00:24:19;99597.84;;;19.10;100.00
71465;BME280;59274;49.874;9.154;2023-09-18T00:26:45;99593.56;;;19.09;100.00
71465;BME280;59274;49.874;9.154;2023-09-18T00:29:13;99592.13;;;19.04;100.00
71465;BME280;59274;49.874;9.154;2023-09-18T00:31:38;99602.88;;;19.11;100.00
71465;BME280;59274;49.874;9.154;2023-09-18T00:34:04;99594.75;;;19.08;100.00
71465;BME280;59274;49.874;9.154;2023-09-18T00:36:29;99593.66;;;19.05;100.00
71465;BME280;59274;49.874;9.154;2023-09-18T00:38:55;99583.84;;;19.04;100.00
71465;BME280;59274;49.874;9.154;2023-09-18T00:41:20;99585.16;;;19.12;100.00
71465;BME280;59274;49.874;9.154;2023-09-18T00:43:45;99580.22;;;19.07;100.00
71465;BME280;59274;49.874;9.154;2023-09-18T00:46:11;99576.06;;;19.03;100.00
71465;BME280;59274;49.874;9.154;2023-09-18T00:48:36;99572.09;;;19.04;100.00
71465;BME280;59274;49.874;9.154;2023-09-18T00:51:02;99570.88;;;19.05;100.00
71465;BME280;59274;49.874;9.154;2023-09-18T00:53:28;99564.91;;;19.06;100.00
71465;BME280;59274;49.874;9.154;2023-09-18T00:55:56;99572.41;;;19.06;100.00
71465;BME280;59274;49.874;9.154;2023-09-18T00:58:23;99557.00;;;19.08;100.00
71465;BME280;59274;49.874;9.154;2023-09-18T01:00:49;99552.25;;;19.09;100.00
71465;BME280;59274;49.874;9.154;2023-09-18T01:03:16;99551.50;;;19.08;100.00
71465;BME280;59274;49.874;9.154;2023-09-18T01:05:44;99565.25;;;19.08;100.00
71465;BME280;59274;49.874;9.154;2023-09-18T01:08:10;99561.41;;;19.06;100.00
71465;BME280;59274;49.874;9.154;2023-09-18T01:13:35;99536.38;;;19.13;100.00
71465;BME280;59274;49.874;9.154;2023-09-18T01:16:20;99533.09;;;19.05;100.00
71465;BME280;59274;49.874;9.154;2023-09-18T01:18:50;99523.97;;;19.08;100.00
71465;BME280;59274;49.874;9.154;2023-09-18T01:21:16;99523.53;;;19.10;100.00
71465;BME280;59274;49.874;9.154;2023-09-18T01:23:42;99528.94;;;19.01;100.00
71465;BME280;59274;49.874;9.154;2023-09-18T01:26:07;99524.47;;;18.94;100.00
71465;BME280;59274;49.874;9.154;2023-09-18T01:28:33;99526.00;;;18.95;100.00
71465;BME280;59274;49.874;9.154;2023-09-18T01:30:58;99524.31;;;18.98;100.00
71465;BME280;59274;49.874;9.154;2023-09-18T01:33:24;99523.88;;;18.99;100.00
71465;BME280;59274;49.874;9.154;2023-09-18T01:35:52;99517.59;;;18.99;100.00
71465;BME280;59274;49.874;9.154;2023-09-18T01:38:21;99518.38;;;18.99;100.00
71465;BME280;59274;49.874;9.154;2023-09-18T01:40:47;99513.31;;;18.98;100.00
71465;BME280;59274;49.874;9.154;2023-09-18T01:43:13;99521.91;;;19.00;100.00
71465;BME280;59274;49.874;9.154;2023-09-18T01:45:39;99505.81;;;18.98;100.00
71465;BME280;59274;49.874;9.154;2023-09-18T01:48:05;99501.88;;;18.99;100.00
71465;BME280;59274;49.874;9.154;2023-09-18T01:50:31;99507.13;;;19.06;100.00
71465;BME280;59274;49.874;9.154;2023-09-18T01:52:58;99507.13;;;19.06;100.00
71465;BME280;59274;49.874;9.154;2023-09-18T01:55:24;99507.25;;;19.03;100.00
71465;BME280;59274;49.874;9.154;2023-09-18T01:57:49;99505.56;;;19.05;100.00
71465;BME280;59274;49.874;9.154;2023-09-18T02:00:15;99502.47;;;19.16;100.00
71465;BME280;59274;49.874;9.154;2023-09-18T02:02:41;99507.19;;;19.15;100.00
71465;BME280;59274;49.874;9.154;2023-09-18T02:05:06;99497.47;;;19.24;100.00
71465;BME280;59274;49.874;9.154;2023-09-18T02:07:32;99485.75;;;19.32;100.00
71465;BME280;59274;49.874;9.154;2023-09-18T02:09:57;99486.97;;;19.31;100.00
71465;BME280;59274;49.874;9.154;2023-09-18T02:12:23;99480.91;;;19.45;100.00
71465;BME280;59274;49.874;9.154;2023-09-18T02:14:48;99480.81;;;19.49;100.00
71465;BME280;59274;49.874;9.154;2023-09-18T02:17:14;99482.66;;;19.52;100.00
71465;BME280;59274;49.874;9.154;2023-09-18T02:19:39;99489.72;;;19.53;100.00
71465;BME280;59274;49.874;9.154;2023-09-18T02:22:05;99514.25;;;19.60;100.00
71465;BME280;59274;49.874;9.154;2023-09-18T02:24:30;99538.69;;;19.80;100.00
71465;BME280;59274;49.874;9.154;2023-09-18T02:26:55;99531.69;;;19.97;100.00
71465;BME280;59274;49.874;9.154;2023-09-18T02:29:21;99527.81;;;19.85;100.00
71465;BME280;59274;49.874;9.154;2023-09-18T02:31:48;99522.22;;;19.67;100.00
71465;BME280;59274;49.874;9.154;2023-09-18T02:34:13;99545.84;;;19.46;100.00
71465;BME280;59274;49.874;9.154;2023-09-18T02:36:38;99564.31;;;19.46;100.00
71465;BME280;59274;49.874;9.154;2023-09-18T02:39:04;99662.28;;;19.47;100.00
71465;BME280;59274;49.874;9.154;2023-09-18T02:41:30;99679.97;;;19.59;100.00
71465;BME280;59274;49.874;9.154;2023-09-18T02:43:55;99674.06;;;19.35;100.00
71465;BME280;59274;49.874;9.154;2023-09-18T02:46:20;99674.03;;;19.13;100.00
71465;BME280;59274;49.874;9.154;2023-09-18T02:48:46;99673.47;;;19.05;100.00
71465;BME280;59274;49.874;9.154;2023-09-18T02:51:11;99650.94;;;18.98;100.00
71465;BME280;59274;49.874;9.154;2023-09-18T02:53:37;99653.69;;;18.98;100.00
71465;BME280;59274;49.874;9.154;2023-09-18T02:56:02;99629.91;;;18.91;100.00
71465;BME280;59274;49.874;9.154;2023-09-18T02:58:28;99620.69;;;18.85;100.00
71465;BME280;59274;49.874;9.154;2023-09-18T03:00:56;99633.25;;;18.86;100.00
71465;BME280;59274;49.874;9.154;2023-09-18T03:03:25;99627.09;;;18.82;100.00
71465;BME280;59274;49.874;9.154;2023-09-18T03:05:51;99604.84;;;18.76;100.00
71465;BME280;59274;49.874;9.154;2023-09-18T03:08:16;99599.69;;;18.78;100.00
71465;BME280;59274;49.874;9.154;2023-09-18T03:10:43;99608.84;;;18.75;100.00
71465;BME280;59274;49.874;9.154;2023-09-18T03:13:10;99608.59;;;18.70;100.00
71465;BME280;59274;49.874;9.154;2023-09-18T03:15:36;99615.09;;;18.63;100.00
71465;BME280;59274;49.874;9.154;2023-09-18T03:18:03;99592.03;;;18.61;100.00
71465;BME280;59274;49.874;9.154;2023-09-18T03:20:29;99586.81;;;18.63;100.00
71465;BME280;59274;49.874;9.154;2023-09-18T03:22:59;99579.03;;;18.61;100.00
71465;BME280;59274;49.874;9.154;2023-09-18T03:25:25;99572.97;;;18.54;100.00
71465;BME280;59274;49.874;9.154;2023-09-18T03:27:52;99569.09;;;18.51;100.00
71465;BME280;59274;49.874;9.154;2023-09-18T03:30:21;99585.50;;;18.42;100.00
71465;BME280;59274;49.874;9.154;2023-09-18T03:32:48;99574.72;;;18.48;100.00
71465;BME280;59274;49.874;9.154;2023-09-18T03:35:14;99570.69;;;18.39;100.00
71465;BME280;59274;49.874;9.154;2023-09-18T03:37:48;99560.88;;;18.38;100.00
71465;BME280;59274;49.874;9.154;2023-09-18T03:40:18;99552.06;;;18.44;100.00
71465;BME280;59274;49.874;9.154;2023-09-18T03:42:45;99545.03;;;18.43;100.00
71465;BME280;59274;49.874;9.154;2023-09-18T03:45:11;99514.22;;;18.48;100.00
71465;BME280;59274;49.874;9.154;2023-09-18T03:47:40;99518.19;;;18.47;100.00
71465;BME280;59274;49.874;9.154;2023-09-18T03:50:07;99501.56;;;18.50;100.00
71465;BME280;59274;49.874;9.154;2023-09-18T03:52:33;99478.78;;;18.50;100.00
71465;BME280;59274;49.874;9.154;2023-09-18T03:54:59;99480.34;;;18.51;100.00
71465;BME280;59274;49.874;9.154;2023-09-18T03:57:24;99487.81;;;18.50;100.00
71465;BME280;59274;49.874;9.154;2023-09-18T03:59:50;99480.56;;;18.56;100.00
71465;BME280;59274;49.874;9.154;2023-09-18T04:02:15;99487.72;;;18.54;100.00
71465;BME280;59274;49.874;9.154;2023-09-18T04:04:41;99497.84;;;18.57;100.00
71465;BME280;59274;49.874;9.154;2023-09-18T04:07:07;99498.25;;;18.55;100.00
71465;BME280;59274;49.874;9.154;2023-09-18T04:09:32;99506.41;;;18.46;100.00
71465;BME280;59274;49.874;9.154;2023-09-18T04:12:03;99484.97;;;18.54;100.00
71465;BME280;59274;49.874;9.154;2023-09-18T04:14:30;99491.47;;;18.47;100.00
71465;BME280;59274;49.874;9.154;2023-09-18T04:16:56;99509.63;;;18.45;100.00
71465;BME280;59274;49.874;9.154;2023-09-18T04:19:21;99511.03;;;18.49;100.00
71465;BME280;59274;49.874;9.154;2023-09-18T04:21:47;99522.94;;;18.46;100.00
71465;BME280;59274;49.874;9.154;2023-09-18T04:24:13;99523.69;;;18.47;100.00
71465;BME280;59274;49.874;9.154;2023-09-18T04:26:38;99527.97;;;18.48;100.00
71465;BME280;59274;49.874;9.154;2023-09-18T04:29:05;99517.72;;;18.48;100.00
71465;BME280;59274;49.874;9.154;2023-09-18T04:31:31;99530.72;;;18.48;100.00
71465;BME280;59274;49.874;9.154;2023-09-18T04:33:56;99542.50;;;18.35;100.00
71465;BME280;59274;49.874;9.154;2023-09-18T04:36:22;99548.44;;;18.34;100.00
71465;BME280;59274;49.874;9.154;2023-09-18T04:38:48;99554.41;;;18.32;100.00
71465;BME280;59274;49.874;9.154;2023-09-18T04:41:14;99559.78;;;18.36;100.00
71465;BME280;59274;49.874;9.154;2023-09-18T04:43:40;99567.38;;;18.32;100.00
71465;BME280;59274;49.874;9.154;2023-09-18T04:46:05;99572.09;;;18.31;100.00
71465;BME280;59274;49.874;9.154;2023-09-18T04:48:31;99569.56;;;18.37;100.00
71465;BME280;59274;49.874;9.154;2023-09-18T04:50:58;99585.94;;;18.40;100.00
71465;BME280;59274;49.874;9.154;2023-09-18T04:53:24;99572.53;;;18.43;100.00
71465;BME280;59274;49.874;9.154;2023-09-18T04:55:49;99565.28;;;18.36;100.00
71465;BME280;59274;49.874;9.154;2023-09-18T04:58:16;99551.09;;;18.37;100.00
71465;BME280;59274;49.874;9.154;2023-09-18T05:00:42;99540.63;;;18.45;100.00
71465;BME280;59274;49.874;9.154;2023-09-18T05:03:08;99497.72;;;18.48;100.00
71465;BME280;59274;49.874;9.154;2023-09-18T05:05:35;99480.25;;;18.42;100.00
71465;BME280;59274;49.874;9.154;2023-09-18T05:08:06;99487.94;;;18.47;100.00
71465;BME280;59274;49.874;9.154;2023-09-18T05:10:35;99496.44;;;18.39;100.00
71465;BME280;59274;49.874;9.154;2023-09-18T05:13:01;99486.31;;;18.36;100.00
71465;BME280;59274;49.874;9.154;2023-09-18T05:15:28;99485.66;;;18.32;100.00
71465;BME280;59274;49.874;9.154;2023-09-18T05:17:57;99494.56;;;18.36;100.00
71465;BME280;59274;49.874;9.154;2023-09-18T05:20:27;99504.13;;;18.32;100.00
71465;BME280;59274;49.874;9.154;2023-09-18T05:22:54;99509.97;;;18.21;100.00
71465;BME280;59274;49.874;9.154;2023-09-18T05:25:23;99524.81;;;18.24;100.00
71465;BME280;59274;49.874;9.154;2023-09-18T05:27:50;99510.19;;;18.27;100.00
71465;BME280;59274;49.874;9.154;2023-09-18T05:30:24;99504.91;;;18.32;100.00
71465;BME280;59274;49.874;9.154;2023-09-18T05:32:53;99493.91;;;18.32;100.00
71465;BME280;59274;49.874;9.154;2023-09-18T05:35:18;99482.44;;;18.34;100.00
71465;BME280;59274;49.874;9.154;2023-09-18T05:37:44;99484.31;;;18.37;100.00
71465;BME280;59274;49.874;9.154;2023-09-18T05:40:11;99476.06;;;18.37;100.00
71465;BME280;59274;49.874;9.154;2023-09-18T05:42:42;99466.50;;;18.42;100.00
71465;BME280;59274;49.874;9.154;2023-09-18T05:45:12;99462.88;;;18.45;100.00
71465;BME280;59274;49.874;9.154;2023-09-18T05:47:38;99465.63;;;18.45;100.00
71465;BME280;59274;49.874;9.154;2023-09-18T05:50:08;99462.53;;;18.43;100.00
71465;BME280;59274;49.874;9.154;2023-09-18T05:52:34;99448.69;;;18.46;100.00
71465;BME280;59274;49.874;9.154;2023-09-18T05:55:01;99452.06;;;18.50;100.00
71465;BME280;59274;49.874;9.154;2023-09-18T05:57:26;99451.94;;;18.54;100.00
71465;BME280;59274;49.874;9.154;2023-09-18T05:59:55;99453.06;;;18.56;100.00
71465;BME280;59274;49.874;9.154;2023-09-18T06:02:21;99461.31;;;18.56;100.00
71465;BME280;59274;49.874;9.154;2023-09-18T06:04:48;99458.22;;;18.54;100.00
71465;BME280;59274;49.874;9.154;2023-09-18T06:07:13;99465.94;;;18.59;100.00
71465;BME280;59274;49.874;9.154;2023-09-18T06:09:39;99476.94;;;18.59;100.00
71465;BME280;59274;49.874;9.154;2023-09-18T06:12:05;99478.47;;;18.60;100.00
71465;BME280;59274;49.874;9.154;2023-09-18T06:14:31;99485.19;;;18.59;100.00
71465;BME280;59274;49.874;9.154;2023-09-18T06:16:57;99519.34;;;18.71;100.00
71465;BME280;59274;49.874;9.154;2023-09-18T06:19:22;99521.53;;;18.76;100.00
71465;BME280;59274;49.874;9.154;2023-09-18T06:21:48;99524.94;;;18.80;100.00
71465;BME280;59274;49.874;9.154;2023-09-18T06:24:14;99538.91;;;18.86;100.00
71465;BME280;59274;49.874;9.154;2023-09-18T06:26:39;99542.00;;;18.88;100.00
71465;BME280;59274;49.874;9.154;2023-09-18T06:29:05;99548.03;;;18.95;100.00
71465;BME280;59274;49.874;9.154;2023-09-18T06:31:31;99554.94;;;19.00;100.00
71465;BME280;59274;49.874;9.154;2023-09-18T06:33:57;99544.09;;;19.05;100.00
71465;BME280;59274;49.874;9.154;2023-09-18T06:36:22;99547.28;;;19.16;100.00
71465;BME280;59274;49.874;9.154;2023-09-18T06:38:48;99549.97;;;19.29;100.00
71465;BME280;59274;49.874;9.154;2023-09-18T06:41:13;99550.72;;;19.30;100.00
71465;BME280;59274;49.874;9.154;2023-09-18T06:43:39;99544.81;;;19.40;100.00
71465;BME280;59274;49.874;9.154;2023-09-18T06:46:07;99539.66;;;19.42;100.00
71465;BME280;59274;49.874;9.154;2023-09-18T06:48:32;99544.59;;;19.47;100.00
71465;BME280;59274;49.874;9.154;2023-09-18T06:50:59;99539.59;;;19.55;100.00
71465;BME280;59274;49.874;9.154;2023-09-18T06:53:28;99544.34;;;19.54;100.00
71465;BME280;59274;49.874;9.154;2023-09-18T06:55:54;99547.81;;;19.68;100.00
71465;BME280;59274;49.874;9.154;2023-09-18T06:58:20;99561.63;;;19.77;100.00
71465;BME280;59274;49.874;9.154;2023-09-18T07:00:46;99564.53;;;19.82;100.00
71465;BME280;59274;49.874;9.154;2023-09-18T07:03:12;99567.78;;;19.81;100.00
71465;BME280;59274;49.874;9.154;2023-09-18T07:05:37;99573.41;;;19.77;100.00
71465;BME280;59274;49.874;9.154;2023-09-18T07:08:03;99578.03;;;19.80;100.00
71465;BME280;59274;49.874;9.154;2023-09-18T07:10:31;99587.25;;;19.86;100.00
71465;BME280;59274;49.874;9.154;2023-09-18T07:12:56;99594.16;;;19.91;100.00
71465;BME280;59274;49.874;9.154;2023-09-18T07:15:21;99585.88;;;19.91;100.00
71465;BME280;59274;49.874;9.154;2023-09-18T07:17:47;99577.09;;;19.83;100.00
71465;BME280;59274;49.874;9.154;2023-09-18T07:20:13;99573.03;;;19.97;100.00
71465;BME280;59274;49.874;9.154;2023-09-18T07:22:40;99582.59;;;20.05;100.00
71465;BME280;59274;49.874;9.154;2023-09-18T07:25:06;99591.19;;;20.07;100.00
71465;BME280;59274;49.874;9.154;2023-09-18T07:27:32;99590.69;;;20.00;100.00
71465;BME280;59274;49.874;9.154;2023-09-18T07:29:57;99593.88;;;19.98;100.00
71465;BME280;59274;49.874;9.154;2023-09-18T07:32:24;99593.59;;;19.96;100.00
71465;BME280;59274;49.874;9.154;2023-09-18T07:34:50;99597.09;;;19.97;100.00
71465;BME280;59274;49.874;9.154;2023-09-18T07:37:16;99599.78;;;20.09;100.00
71465;BME280;59274;49.874;9.154;2023-09-18T07:39:46;99602.66;;;20.06;100.00
71465;BME280;59274;49.874;9.154;2023-09-18T07:42:12;99615.41;;;20.12;100.00
71465;BME280;59274;49.874;9.154;2023-09-18T07:44:37;99606.41;;;20.21;100.00
71465;BME280;59274;49.874;9.154;2023-09-18T07:47:03;99606.31;;;20.33;100.00
71465;BME280;59274;49.874;9.154;2023-09-18T07:49:28;99607.91;;;20.44;100.00
71465;BME280;59274;49.874;9.154;2023-09-18T07:51:54;99598.88;;;20.43;100.00
71465;BME280;59274;49.874;9.154;2023-09-18T07:54:19;99610.22;;;20.45;100.00
71465;BME280;59274;49.874;9.154;2023-09-18T07:56:45;99617.44;;;20.52;100.00
71465;BME280;59274;49.874;9.154;2023-09-18T07:59:10;99618.53;;;20.63;100.00
71465;BME280;59274;49.874;9.154;2023-09-18T08:01:36;99625.44;;;20.59;100.00
71465;BME280;59274;49.874;9.154;2023-09-18T08:04:02;99623.13;;;20.57;100.00
71465;BME280;59274;49.874;9.154;2023-09-18T08:06:27;99625.13;;;20.57;100.00
71465;BME280;59274;49.874;9.154;2023-09-18T08:08:53;99618.09;;;20.65;100.00
71465;BME280;59274;49.874;9.154;2023-09-18T08:11:19;99638.34;;;20.71;100.00
71465;BME280;59274;49.874;9.154;2023-09-18T08:13:45;99629.31;;;20.80;100.00
71465;BME280;59274;49.874;9.154;2023-09-18T08:16:10;99630.41;;;20.91;100.00
71465;BME280;59274;49.874;9.154;2023-09-18T08:18:35;99634.88;;;20.98;100.00
71465;BME280;59274;49.874;9.154;2023-09-18T08:21:01;99649.59;;;21.04;100.00
71465;BME280;59274;49.874;9.154;2023-09-18T08:23:27;99643.78;;;21.11;100.00
71465;BME280;59274;49.874;9.154;2023-09-18T08:25:53;99630.63;;;21.15;100.00
71465;BME280;59274;49.874;9.154;2023-09-18T08:28:22;99640.63;;;21.22;100.00
71465;BME280;59274;49.874;9.154;2023-09-18T08:30:48;99645.53;;;21.27;100.00
71465;BME280;59274;49.874;9.154;2023-09-18T08:33:14;99651.06;;;21.27;100.00
71465;BME280;59274;49.874;9.154;2023-09-18T08:35:39;99646.53;;;21.11;100.00
71465;BME280;59274;49.874;9.154;2023-09-18T08:38:05;99642.00;;;21.17;100.00
71465;BME280;59274;49.874;9.154;2023-09-18T08:40:31;99637.50;;;21.10;100.00
71465;BME280;59274;49.874;9.154;2023-09-18T08:42:58;99631.69;;;21.08;100.00
71465;BME280;59274;49.874;9.154;2023-09-18T08:48:28;99627.84;;;21.15;100.00
71465;BME280;59274;49.874;9.154;2023-09-18T08:51:01;99621.41;;;21.18;100.00
71465;BME280;59274;49.874;9.154;2023-09-18T08:53:34;99620.50;;;21.21;100.00
71465;BME280;59274;49.874;9.154;2023-09-18T08:56:00;99628.94;;;21.27;100.00
71465;BME280;59274;49.874;9.154;2023-09-18T09:00:59;99607.00;;;21.32;100.00
71465;BME280;59274;49.874;9.154;2023-09-18T09:03:26;99607.94;;;21.38;100.00
71465;BME280;59274;49.874;9.154;2023-09-18T09:05:52;99615.59;;;21.43;100.00
71465;BME280;59274;49.874;9.154;2023-09-18T09:08:17;99612.53;;;21.41;100.00
71465;BME280;59274;49.874;9.154;2023-09-18T09:10:43;99601.47;;;21.51;100.00
71465;BME280;59274;49.874;9.154;2023-09-18T09:13:08;99595.03;;;21.44;100.00
71465;BME280;59274;49.874;9.154;2023-09-18T09:15:44;99596.09;;;21.47;100.00
71465;BME280;59274;49.874;9.154;2023-09-18T09:18:15;99595.31;;;21.46;100.00
71465;BME280;59274;49.874;9.154;2023-09-18T09:20:41;99607.00;;;21.41;100.00
71465;BME280;59274;49.874;9.154;2023-09-18T09:23:18;99609.44;;;21.39;100.00
71465;BME280;59274;49.874;9.154;2023-09-18T09:25:44;99611.31;;;21.42;100.00
71465;BME280;59274;49.874;9.154;2023-09-18T09:28:09;99585.34;;;21.40;100.00
71465;BME280;59274;49.874;9.154;2023-09-18T09:30:35;99595.63;;;21.39;100.00
71465;BME280;59274;49.874;9.154;2023-09-18T09:33:04;99592.59;;;21.28;100.00
71465;BME280;59274;49.874;9.154;2023-09-18T09:35:34;99597.81;;;21.35;100.00
71465;BME280;59274;49.874;9.154;2023-09-18T09:38:06;99609.44;;;21.39;100.00
71465;BME280;59274;49.874;9.154;2023-09-18T09:40:32;99615.94;;;21.45;100.00
71465;BME280;59274;49.874;9.154;2023-09-18T09:42:58;99618.22;;;21.38;100.00
71465;BME280;59274;49.874;9.154;2023-09-18T09:45:28;99624.03;;;21.40;100.00
71465;BME280;59274;49.874;9.154;2023-09-18T09:47:56;99631.56;;;21.30;100.00
71465;BME280;59274;49.874;9.154;2023-09-18T09:50:22;99625.28;;;21.30;100.00
71465;BME280;59274;49.874;9.154;2023-09-18T09:57:55;99658.06;;;21.09;100.00
71465;BME280;59274;49.874;9.154;2023-09-18T10:00:24;99658.56;;;21.26;100.00
71465;BME280;59274;49.874;9.154;2023-09-18T10:02:56;99666.88;;;21.35;100.00
71465;BME280;59274;49.874;9.154;2023-09-18T10:05:26;99667.50;;;21.30;100.00
71465;BME280;59274;49.874;9.154;2023-09-18T10:07:52;99677.94;;;21.35;100.00
71465;BME280;59274;49.874;9.154;2023-09-18T10:10:19;99679.00;;;21.38;100.00
71465;BME280;59274;49.874;9.154;2023-09-18T10:12:45;99674.72;;;21.37;100.00
71465;BME280;59274;49.874;9.154;2023-09-18T10:15:15;99682.66;;;21.26;100.00
71465;BME280;59274;49.874;9.154;2023-09-18T10:17:43;99677.78;;;21.30;100.00
71465;BME280;59274;49.874;9.154;2023-09-18T10:20:16;99688.06;;;21.29;100.00
71465;BME280;59274;49.874;9.154;2023-09-18T10:22:49;99673.78;;;21.31;100.00
71465;BME280;59274;49.874;9.154;2023-09-18T10:25:20;99675.78;;;21.30;100.00
71465;BME280;59274;49.874;9.154;2023-09-18T10:27:49;99671.78;;;21.31;100.00
71465;BME280;59274;49.874;9.154;2023-09-18T10:30:16;99668.88;;;21.35;100.00
71465;BME280;59274;49.874;9.154;2023-09-18T10:32:45;99672.25;;;21.30;100.00
71465;BME280;59274;49.874;9.154;2023-09-18T10:35:11;99666.09;;;21.35;100.00
71465;BME280;59274;49.874;9.154;2023-09-18T10:37:45;99662.13;;;21.36;100.00
71465;BME280;59274;49.874;9.154;2023-09-18T10:40:11;99667.03;;;21.41;100.00
71465;BME280;59274;49.874;9.154;2023-09-18T10:42:39;99671.66;;;21.44;100.00
71465;BME280;59274;49.874;9.154;2023-09-18T10:45:06;99677.94;;;21.44;100.00
71465;BME280;59274;49.874;9.154;2023-09-18T10:47:37;99667.47;;;21.39;100.00
71465;BME280;59274;49.874;9.154;2023-09-18T10:50:03;99672.41;;;21.44;100.00
71465;BME280;59274;49.874;9.154;2023-09-18T10:52:30;99680.22;;;21.46;100.00
71465;BME280;59274;49.874;9.154;2023-09-18T10:54:55;99690.50;;;21.55;100.00
71465;BME280;59274;49.874;9.154;2023-09-18T10:57:21;99672.56;;;21.59;100.00
71465;BME280;59274;49.874;9.154;2023-09-18T10:59:47;99659.81;;;21.62;100.00
71465;BME280;59274;49.874;9.154;2023-09-18T11:02:16;99652.44;;;21.68;100.00
71465;BME280;59274;49.874;9.154;2023-09-18T11:04:44;99657.81;;;21.71;100.00
71465;BME280;59274;49.874;9.154;2023-09-18T11:07:19;99671.19;;;21.73;100.00
71465;BME280;59274;49.874;9.154;2023-09-18T11:09:45;99664.88;;;21.72;100.00
71465;BME280;59274;49.874;9.154;2023-09-18T11:12:11;99674.22;;;21.75;100.00
71465;BME280;59274;49.874;9.154;2023-09-18T11:14:57;99676.38;;;21.89;100.00
71465;BME280;59274;49.874;9.154;2023-09-18T11:17:33;99680.97;;;21.83;100.00
71465;BME280;59274;49.874;9.154;2023-09-18T11:20:23;99669.47;;;22.03;100.00
71465;BME280;59274;49.874;9.154;2023-09-18T11:22:57;99658.41;;;22.03;100.00
71465;BME280;59274;49.874;9.154;2023-09-18T11:25:39;99678.19;;;22.10;100.00
71465;BME280;59274;49.874;9.154;2023-09-18T11:28:23;99682.34;;;22.15;100.00
71465;BME280;59274;49.874;9.154;2023-09-18T11:30:54;99682.50;;;22.20;100.00
71465;BME280;59274;49.874;9.154;2023-09-18T11:33:41;99668.16;;;22.31;100.00
71465;BME280;59274;49.874;9.154;2023-09-18T11:38:54;99663.03;;;22.48;100.00
71465;BME280;59274;49.874;9.154;2023-09-18T11:41:22;99664.88;;;22.51;100.00
71465;BME280;59274;49.874;9.154;2023-09-18T11:43:48;99663.47;;;22.55;100.00
71465;BME280;59274;49.874;9.154;2023-09-18T11:46:18;99659.88;;;22.64;100.00
71465;BME280;59274;49.874;9.154;2023-09-18T11:48:44;99675.75;;;22.54;100.00
71465;BME280;59274;49.874;9.154;2023-09-18T11:51:12;99675.75;;;22.54;100.00
71465;BME280;59274;49.874;9.154;2023-09-18T11:53:40;99673.75;;;22.55;100.00
71465;BME280;59274;49.874;9.154;2023-09-18T11:56:11;99651.28;;;22.62;100.00
71465;BME280;59274;49.874;9.154;2023-09-18T11:58:50;99650.50;;;22.61;100.00
71465;BME280;59274;49.874;9.154;2023-09-18T12:01:17;99649.72;;;22.70;100.00
71465;BME280;59274;49.874;9.154;2023-09-18T12:03:43;99656.13;;;22.85;100.00
71465;BME280;59274;49.874;9.154;2023-09-18T12:06:08;99662.88;;;22.84;100.00
71465;BME280;59274;49.874;9.154;2023-09-18T12:08:39;99673.44;;;22.95;100.00
71465;BME280;59274;49.874;9.154;2023-09-18T12:11:06;99677.47;;;22.94;100.00
71465;BME280;59274;49.874;9.154;2023-09-18T12:13:31;99675.69;;;23.06;100.00
71465;BME280;59274;49.874;9.154;2023-09-18T12:15:59;99673.22;;;23.08;100.00
71465;BME280;59274;49.874;9.154;2023-09-18T12:18:25;99671.38;;;23.04;100.00
71465;BME280;59274;49.874;9.154;2023-09-18T12:20:54;99667.84;;;23.04;100.00
71465;BME280;59274;49.874;9.154;2023-09-18T12:23:21;99673.75;;;22.97;100.00
71465;BME280;59274;49.874;9.154;2023-09-18T12:25:56;99679.38;;;22.79;100.00
71465;BME280;59274;49.874;9.154;2023-09-18T12:28:22;99684.16;;;22.78;100.00
71465;BME280;59274;49.874;9.154;2023-09-18T12:30:50;99684.81;;;22.73;100.00
71465;BME280;59274;49.874;9.154;2023-09-18T12:33:17;99675.84;;;22.78;100.00
71465;BME280;59274;49.874;9.154;2023-09-18T12:35:43;99676.28;;;22.86;100.00
71465;BME280;59274;49.874;9.154;2023-09-18T12:38:16;99681.75;;;22.95;100.00
71465;BME280;59274;49.874;9.154;2023-09-18T12:40:43;99681.22;;;23.06;100.00
71465;BME280;59274;49.874;9.154;2023-09-18T12:43:12;99676.94;;;23.04;100.00
71465;BME280;59274;49.874;9.154;2023-09-18T12:45:41;99673.34;;;23.13;100.00
71465;BME280;59274;49.874;9.154;2023-09-18T12:48:07;99675.91;;;23.17;100.00
71465;BME280;59274;49.874;9.154;2023-09-18T12:50:33;99679.88;;;23.25;100.00
71465;BME280;59274;49.874;9.154;2023-09-18T12:53:07;99676.22;;;23.19;100.00
71465;BME280;59274;49.874;9.154;2023-09-18T12:55:33;99687.19;;;23.13;100.00
71465;BME280;59274;49.874;9.154;2023-09-18T12:57:58;99688.69;;;22.90;100.00
71465;BME280;59274;49.874;9.154;2023-09-18T13:00:25;99687.47;;;22.91;100.00
71465;BME280;59274;49.874;9.154;2023-09-18T13:02:52;99674.75;;;22.85;100.00
71465;BME280;59274;49.874;9.154;2023-09-18T13:05:21;99666.16;;;23.07;100.00